sensor_id;sensor_type;location;lat;lon;timestamp;temperature;humidity
6964;DHT22;3522;50.856;7.278;2023-05-23T00:01:57;15.00;99.90
6964;DHT22;3522;50.856;7.278;2023-05-23T00:04:25;15.00;99.90
6964;DHT22;3522;50.856;7.278;2023-05-23T00:06:52;14.90;99.90
6964;DHT22;3522;50.856;7.278;2023-05-23T00:09:19;14.80;99.90
6964;DHT22;3522;50.856;7.278;2023-05-23T00:11:45;14.80;99.90
6964;DHT22;3522;50.856;7.278;2023-05-23T00:14:12;14.70;99.90
6964;DHT22;3522;50.856;7.278;2023-05-23T00:16:39;14.70;99.90
6964;DHT22;3522;50.856;7.278;2023-05-23T00:19:07;14.70;99.90
6964;DHT22;3522;50.856;7.278;2023-05-23T00:21:35;14.60;99.90
6964;DHT22;3522;50.856;7.278;2023-05-23T00:24:02;14.60;99.90
6964;DHT22;3522;50.856;7.278;2023-05-23T00:26:29;14.60;99.90
6964;DHT22;3522;50.856;7.278;2023-05-23T00:28:56;14.60;99.90
6964;DHT22;3522;50.856;7.278;2023-05-23T00:31:22;14.60;99.90
6964;DHT22;3522;50.856;7.278;2023-05-23T00:33:49;14.50;99.90
6964;DHT22;3522;50.856;7.278;2023-05-23T00:36:15;14.50;99.90
6964;DHT22;3522;50.856;7.278;2023-05-23T00:38:44;14.50;99.90
6964;DHT22;3522;50.856;7.278;2023-05-23T00:41:10;14.50;99.90
6964;DHT22;3522;50.856;7.278;2023-05-23T00:43:37;14.40;99.90
6964;DHT22;3522;50.856;7.278;2023-05-23T00:46:04;14.40;99.90
6964;DHT22;3522;50.856;7.278;2023-05-23T00:48:30;14.40;99.90
6964;DHT22;3522;50.856;7.278;2023-05-23T00:50:57;14.30;99.90
6964;DHT22;3522;50.856;7.278;2023-05-23T00:53:24;14.30;99.90
6964;DHT22;3522;50.856;7.278;2023-05-23T00:55:53;14.20;99.90
6964;DHT22;3522;50.856;7.278;2023-05-23T00:58:19;14.20;99.90
6964;DHT22;3522;50.856;7.278;2023-05-23T01:00:46;14.10;99.90
6964;DHT22;3522;50.856;7.278;2023-05-23T01:03:14;14.10;99.90
6964;DHT22;3522;50.856;7.278;2023-05-23T01:05:42;14.10;99.90
6964;DHT22;3522;50.856;7.278;2023-05-23T01:08:09;14.10;99.90
6964;DHT22;3522;50.856;7.278;2023-05-23T01:10:35;14.00;99.90
6964;DHT22;3522;50.856;7.278;2023-05-23T01:13:05;14.00;99.90
6964;DHT22;3522;50.856;7.278;2023-05-23T01:15:35;14.00;99.90
6964;DHT22;3522;50.856;7.278;2023-05-23T01:18:06;13.90;99.90
6964;DHT22;3522;50.856;7.278;2023-05-23T01:20:34;13.90;99.90
6964;DHT22;3522;50.856;7.278;2023-05-23T01:23:17;13.90;99.90
6964;DHT22;3522;50.856;7.278;2023-05-23T01:25:46;13.90;99.90
6964;DHT22;3522;50.856;7.278;2023-05-23T01:28:19;14.00;99.90
6964;DHT22;3522;50.856;7.278;2023-05-23T01:30:47;14.00;99.90
6964;DHT22;3522;50.856;7.278;2023-05-23T01:33:16;14.10;99.90
6964;DHT22;3522;50.856;7.278;2023-05-23T01:35:43;14.10;99.90
6964;DHT22;3522;50.856;7.278;2023-05-23T01:38:10;14.20;99.90
6964;DHT22;3522;50.856;7.278;2023-05-23T01:40:36;14.20;99.90
6964;DHT22;3522;50.856;7.278;2023-05-23T01:43:03;14.20;99.90
6964;DHT22;3522;50.856;7.278;2023-05-23T01:45:31;14.20;99.90
6964;DHT22;3522;50.856;7.278;2023-05-23T01:47:58;14.20;99.90
6964;DHT22;3522;50.856;7.278;2023-05-23T01:50:24;14.20;99.90
6964;DHT22;3522;50.856;7.278;2023-05-23T01:52:51;14.30;99.90
6964;DHT22;3522;50.856;7.278;2023-05-23T01:55:19;14.40;99.90
6964;DHT22;3522;50.856;7.278;2023-05-23T01:57:49;14.40;99.90
6964;DHT22;3522;50.856;7.278;2023-05-23T02:00:16;14.40;99.90
6964;DHT22;3522;50.856;7.278;2023-05-23T02:02:44;14.40;99.90
6964;DHT22;3522;50.856;7.278;2023-05-23T02:05:11;14.40;99.90
6964;DHT22;3522;50.856;7.278;2023-05-23T02:07:37;14.50;99.90
6964;DHT22;3522;50.856;7.278;2023-05-23T02:10:06;14.60;99.90
6964;DHT22;3522;50.856;7.278;2023-05-23T02:12:33;14.50;99.90
6964;DHT22;3522;50.856;7.278;2023-05-23T02:14:59;14.50;99.90
6964;DHT22;3522;50.856;7.278;2023-05-23T02:17:26;14.50;99.90
6964;DHT22;3522;50.856;7.278;2023-05-23T02:19:53;14.50;99.90
6964;DHT22;3522;50.856;7.278;2023-05-23T02:22:21;14.50;99.90
6964;DHT22;3522;50.856;7.278;2023-05-23T02:24:48;14.60;99.90
6964;DHT22;3522;50.856;7.278;2023-05-23T02:27:15;14.60;99.90
6964;DHT22;3522;50.856;7.278;2023-05-23T02:29:41;14.60;99.90
6964;DHT22;3522;50.856;7.278;2023-05-23T02:32:08;14.60;99.90
6964;DHT22;3522;50.856;7.278;2023-05-23T02:34:34;14.60;99.90
6964;DHT22;3522;50.856;7.278;2023-05-23T02:37:04;14.50;99.90
6964;DHT22;3522;50.856;7.278;2023-05-23T02:39:30;14.50;99.90
6964;DHT22;3522;50.856;7.278;2023-05-23T02:41:57;14.50;99.90
6964;DHT22;3522;50.856;7.278;2023-05-23T02:44:23;14.40;99.90
6964;DHT22;3522;50.856;7.278;2023-05-23T02:46:50;14.40;99.90
6964;DHT22;3522;50.856;7.278;2023-05-23T02:49:16;14.40;99.90
6964;DHT22;3522;50.856;7.278;2023-05-23T02:51:43;14.40;99.90
6964;DHT22;3522;50.856;7.278;2023-05-23T02:54:11;14.30;99.90
6964;DHT22;3522;50.856;7.278;2023-05-23T02:56:37;14.30;99.90
6964;DHT22;3522;50.856;7.278;2023-05-23T02:59:04;14.30;99.90
6964;DHT22;3522;50.856;7.278;2023-05-23T03:01:30;14.30;99.90
6964;DHT22;3522;50.856;7.278;2023-05-23T03:03:57;14.30;99.90
6964;DHT22;3522;50.856;7.278;2023-05-23T03:06:23;14.30;99.90
6964;DHT22;3522;50.856;7.278;2023-05-23T03:08:51;14.30;99.90
6964;DHT22;3522;50.856;7.278;2023-05-23T03:11:19;14.30;99.90
6964;DHT22;3522;50.856;7.278;2023-05-23T03:13:46;14.30;99.90
6964;DHT22;3522;50.856;7.278;2023-05-23T03:16:13;14.30;99.90
6964;DHT22;3522;50.856;7.278;2023-05-23T03:18:40;14.30;99.90
6964;DHT22;3522;50.856;7.278;2023-05-23T03:21:06;14.30;99.90
6964;DHT22;3522;50.856;7.278;2023-05-23T03:23:33;14.30;99.90
6964;DHT22;3522;50.856;7.278;2023-05-23T03:26:00;14.30;99.90
6964;DHT22;3522;50.856;7.278;2023-05-23T03:28:29;14.30;99.90
6964;DHT22;3522;50.856;7.278;2023-05-23T03:30:56;14.20;99.90
6964;DHT22;3522;50.856;7.278;2023-05-23T03:33:22;14.20;99.90
6964;DHT22;3522;50.856;7.278;2023-05-23T03:35:49;14.30;99.90
6964;DHT22;3522;50.856;7.278;2023-05-23T03:38:15;14.30;99.90
6964;DHT22;3522;50.856;7.278;2023-05-23T03:40:42;14.30;99.90
6964;DHT22;3522;50.856;7.278;2023-05-23T03:43:08;14.30;99.90
6964;DHT22;3522;50.856;7.278;2023-05-23T03:45:36;14.30;99.90
6964;DHT22;3522;50.856;7.278;2023-05-23T03:48:03;14.30;99.90
6964;DHT22;3522;50.856;7.278;2023-05-23T03:50:29;14.30;99.90
6964;DHT22;3522;50.856;7.278;2023-05-23T03:52:56;14.30;99.90
6964;DHT22;3522;50.856;7.278;2023-05-23T03:55:23;14.30;99.90
6964;DHT22;3522;50.856;7.278;2023-05-23T03:57:50;14.30;99.90
6964;DHT22;3522;50.856;7.278;2023-05-23T04:00:16;14.20;99.90
6964;DHT22;3522;50.856;7.278;2023-05-23T04:02:45;14.20;99.90
6964;DHT22;3522;50.856;7.278;2023-05-23T04:05:11;14.10;99.90
6964;DHT22;3522;50.856;7.278;2023-05-23T04:07:38;14.10;99.90
6964;DHT22;3522;50.856;7.278;2023-05-23T04:10:06;14.10;99.90
6964;DHT22;3522;50.856;7.278;2023-05-23T04:12:33;14.10;99.90
6964;DHT22;3522;50.856;7.278;2023-05-23T04:14:59;14.00;99.90
6964;DHT22;3522;50.856;7.278;2023-05-23T04:17:26;14.00;99.90
6964;DHT22;3522;50.856;7.278;2023-05-23T04:19:56;14.00;99.90
6964;DHT22;3522;50.856;7.278;2023-05-23T04:22:22;14.00;99.90
6964;DHT22;3522;50.856;7.278;2023-05-23T04:24:49;14.00;99.90
6964;DHT22;3522;50.856;7.278;2023-05-23T04:27:15;14.00;99.90
6964;DHT22;3522;50.856;7.278;2023-05-23T04:29:42;14.00;99.90
6964;DHT22;3522;50.856;7.278;2023-05-23T04:32:11;14.00;99.90
6964;DHT22;3522;50.856;7.278;2023-05-23T04:34:37;14.00;99.90
6964;DHT22;3522;50.856;7.278;2023-05-23T04:37:06;13.90;99.90
6964;DHT22;3522;50.856;7.278;2023-05-23T04:39:34;14.00;99.90
6964;DHT22;3522;50.856;7.278;2023-05-23T04:42:00;13.90;99.90
6964;DHT22;3522;50.856;7.278;2023-05-23T04:44:27;13.90;99.90
6964;DHT22;3522;50.856;7.278;2023-05-23T04:46:54;13.90;99.90
6964;DHT22;3522;50.856;7.278;2023-05-23T04:49:21;13.80;99.90
6964;DHT22;3522;50.856;7.278;2023-05-23T04:51:48;13.80;99.90
6964;DHT22;3522;50.856;7.278;2023-05-23T04:54:15;13.80;99.90
6964;DHT22;3522;50.856;7.278;2023-05-23T04:56:42;13.80;99.90
6964;DHT22;3522;50.856;7.278;2023-05-23T04:59:08;13.80;99.90
6964;DHT22;3522;50.856;7.278;2023-05-23T05:01:35;13.80;99.90
6964;DHT22;3522;50.856;7.278;2023-05-23T05:04:04;13.80;99.90
6964;DHT22;3522;50.856;7.278;2023-05-23T05:06:31;13.80;99.90
6964;DHT22;3522;50.856;7.278;2023-05-23T05:08:58;13.80;99.90
6964;DHT22;3522;50.856;7.278;2023-05-23T05:11:26;13.80;99.90
6964;DHT22;3522;50.856;7.278;2023-05-23T05:13:52;13.80;99.90
6964;DHT22;3522;50.856;7.278;2023-05-23T05:16:19;13.80;99.90
6964;DHT22;3522;50.856;7.278;2023-05-23T05:18:46;13.80;99.90
6964;DHT22;3522;50.856;7.278;2023-05-23T05:21:12;13.80;99.90
6964;DHT22;3522;50.856;7.278;2023-05-23T05:23:39;13.80;99.90
6964;DHT22;3522;50.856;7.278;2023-05-23T05:26:06;13.80;99.90
6964;DHT22;3522;50.856;7.278;2023-05-23T05:28:34;13.80;99.90
6964;DHT22;3522;50.856;7.278;2023-05-23T05:31:00;13.80;99.90
6964;DHT22;3522;50.856;7.278;2023-05-23T05:33:29;13.70;99.90
6964;DHT22;3522;50.856;7.278;2023-05-23T05:36:00;13.70;99.90
6964;DHT22;3522;50.856;7.278;2023-05-23T05:38:27;13.80;99.90
6964;DHT22;3522;50.856;7.278;2023-05-23T05:40:53;13.70;99.90
6964;DHT22;3522;50.856;7.278;2023-05-23T05:43:20;13.70;99.90
6964;DHT22;3522;50.856;7.278;2023-05-23T05:45:48;13.70;99.90
6964;DHT22;3522;50.856;7.278;2023-05-23T05:48:14;13.70;99.90
6964;DHT22;3522;50.856;7.278;2023-05-23T05:50:41;13.70;99.90
6964;DHT22;3522;50.856;7.278;2023-05-23T05:53:09;13.70;99.90
6964;DHT22;3522;50.856;7.278;2023-05-23T05:55:36;13.70;99.90
6964;DHT22;3522;50.856;7.278;2023-05-23T05:58:03;13.80;99.90
6964;DHT22;3522;50.856;7.278;2023-05-23T06:00:30;13.80;99.90
6964;DHT22;3522;50.856;7.278;2023-05-23T06:02:58;13.90;99.90
6964;DHT22;3522;50.856;7.278;2023-05-23T06:05:24;13.90;99.90
6964;DHT22;3522;50.856;7.278;2023-05-23T06:07:51;13.90;99.90
6964;DHT22;3522;50.856;7.278;2023-05-23T06:10:18;13.90;99.90
6964;DHT22;3522;50.856;7.278;2023-05-23T06:12:44;13.90;99.90
6964;DHT22;3522;50.856;7.278;2023-05-23T06:15:11;13.90;99.90
6964;DHT22;3522;50.856;7.278;2023-05-23T06:17:39;13.90;99.90
6964;DHT22;3522;50.856;7.278;2023-05-23T06:20:07;13.90;99.90
6964;DHT22;3522;50.856;7.278;2023-05-23T06:22:34;14.00;99.90
6964;DHT22;3522;50.856;7.278;2023-05-23T06:25:01;14.00;99.90
6964;DHT22;3522;50.856;7.278;2023-05-23T06:27:27;13.90;99.90
6964;DHT22;3522;50.856;7.278;2023-05-23T06:29:54;13.90;99.90
6964;DHT22;3522;50.856;7.278;2023-05-23T06:32:20;13.90;99.90
6964;DHT22;3522;50.856;7.278;2023-05-23T06:34:47;14.00;99.90
6964;DHT22;3522;50.856;7.278;2023-05-23T06:37:15;14.00;99.90
6964;DHT22;3522;50.856;7.278;2023-05-23T06:39:42;14.10;99.90
6964;DHT22;3522;50.856;7.278;2023-05-23T06:42:08;14.10;99.90
6964;DHT22;3522;50.856;7.278;2023-05-23T06:44:35;14.10;99.90
6964;DHT22;3522;50.856;7.278;2023-05-23T06:47:02;14.10;99.90
6964;DHT22;3522;50.856;7.278;2023-05-23T06:49:28;14.10;99.90
6964;DHT22;3522;50.856;7.278;2023-05-23T06:51:55;14.10;99.90
6964;DHT22;3522;50.856;7.278;2023-05-23T06:54:23;14.10;99.90
6964;DHT22;3522;50.856;7.278;2023-05-23T06:56:49;14.10;99.90
6964;DHT22;3522;50.856;7.278;2023-05-23T06:59:18;14.10;99.90
6964;DHT22;3522;50.856;7.278;2023-05-23T07:01:44;14.10;99.90
6964;DHT22;3522;50.856;7.278;2023-05-23T07:04:11;14.00;99.90
6964;DHT22;3522;50.856;7.278;2023-05-23T07:06:37;14.00;99.90
6964;DHT22;3522;50.856;7.278;2023-05-23T07:09:04;14.00;99.90
6964;DHT22;3522;50.856;7.278;2023-05-23T07:11:32;14.00;99.90
6964;DHT22;3522;50.856;7.278;2023-05-23T07:13:59;14.00;99.90
6964;DHT22;3522;50.856;7.278;2023-05-23T07:16:26;14.00;99.90
6964;DHT22;3522;50.856;7.278;2023-05-23T07:18:52;13.90;99.90
6964;DHT22;3522;50.856;7.278;2023-05-23T07:21:19;13.90;99.90
6964;DHT22;3522;50.856;7.278;2023-05-23T07:23:45;13.90;99.90
6964;DHT22;3522;50.856;7.278;2023-05-23T07:26:12;13.90;99.90
6964;DHT22;3522;50.856;7.278;2023-05-23T07:28:40;13.90;99.90
6964;DHT22;3522;50.856;7.278;2023-05-23T07:31:06;13.90;99.90
6964;DHT22;3522;50.856;7.278;2023-05-23T07:33:33;14.00;99.90
6964;DHT22;3522;50.856;7.278;2023-05-23T07:36:00;14.00;99.90
6964;DHT22;3522;50.856;7.278;2023-05-23T07:38:26;14.00;99.90
6964;DHT22;3522;50.856;7.278;2023-05-23T07:40:53;14.00;99.90
6964;DHT22;3522;50.856;7.278;2023-05-23T07:43:19;14.00;99.90
6964;DHT22;3522;50.856;7.278;2023-05-23T07:45:48;14.00;99.90
6964;DHT22;3522;50.856;7.278;2023-05-23T07:48:14;14.00;99.90
6964;DHT22;3522;50.856;7.278;2023-05-23T07:50:41;14.00;99.90
6964;DHT22;3522;50.856;7.278;2023-05-23T07:53:07;14.10;99.90
6964;DHT22;3522;50.856;7.278;2023-05-23T07:55:34;14.10;99.90
6964;DHT22;3522;50.856;7.278;2023-05-23T07:58:01;14.10;99.90
6964;DHT22;3522;50.856;7.278;2023-05-23T08:00:27;14.10;99.90
6964;DHT22;3522;50.856;7.278;2023-05-23T08:02:55;14.10;99.90
6964;DHT22;3522;50.856;7.278;2023-05-23T08:05:22;14.10;99.90
6964;DHT22;3522;50.856;7.278;2023-05-23T08:07:48;14.10;99.90
6964;DHT22;3522;50.856;7.278;2023-05-23T08:10:15;14.10;99.90
6964;DHT22;3522;50.856;7.278;2023-05-23T08:12:41;14.10;99.90
6964;DHT22;3522;50.856;7.278;2023-05-23T08:15:08;14.10;99.90
6964;DHT22;3522;50.856;7.278;2023-05-23T08:17:35;14.10;99.90
6964;DHT22;3522;50.856;7.278;2023-05-23T08:20:04;14.10;99.90
6964;DHT22;3522;50.856;7.278;2023-05-23T08:22:31;14.10;99.90
6964;DHT22;3522;50.856;7.278;2023-05-23T08:24:58;14.10;99.90
6964;DHT22;3522;50.856;7.278;2023-05-23T08:27:24;14.10;99.90
6964;DHT22;3522;50.856;7.278;2023-05-23T08:29:51;14.10;99.90
6964;DHT22;3522;50.856;7.278;2023-05-23T08:32:17;14.10;99.90
6964;DHT22;3522;50.856;7.278;2023-05-23T08:34:44;14.10;99.90
6964;DHT22;3522;50.856;7.278;2023-05-23T08:37:12;14.10;99.90
6964;DHT22;3522;50.856;7.278;2023-05-23T08:39:39;14.20;99.90
6964;DHT22;3522;50.856;7.278;2023-05-23T08:42:05;14.20;99.90
6964;DHT22;3522;50.856;7.278;2023-05-23T08:44:32;14.30;99.90
6964;DHT22;3522;50.856;7.278;2023-05-23T08:47:00;14.30;99.90
6964;DHT22;3522;50.856;7.278;2023-05-23T08:49:29;14.20;99.90
6964;DHT22;3522;50.856;7.278;2023-05-23T08:51:56;14.20;99.90
6964;DHT22;3522;50.856;7.278;2023-05-23T08:54:28;14.20;99.90
6964;DHT22;3522;50.856;7.278;2023-05-23T08:56:54;14.20;99.90
6964;DHT22;3522;50.856;7.278;2023-05-23T08:59:21;14.30;99.90
6964;DHT22;3522;50.856;7.278;2023-05-23T09:01:47;14.30;99.90
6964;DHT22;3522;50.856;7.278;2023-05-23T09:04:15;14.30;99.90
6964;DHT22;3522;50.856;7.278;2023-05-23T09:06:42;14.40;99.90
6964;DHT22;3522;50.856;7.278;2023-05-23T09:09:08;14.50;99.90
6964;DHT22;3522;50.856;7.278;2023-05-23T09:11:36;14.60;99.90
6964;DHT22;3522;50.856;7.278;2023-05-23T09:14:03;14.60;99.90
6964;DHT22;3522;50.856;7.278;2023-05-23T09:16:32;14.70;99.90
6964;DHT22;3522;50.856;7.278;2023-05-23T09:18:59;14.70;99.90
6964;DHT22;3522;50.856;7.278;2023-05-23T09:21:35;14.70;99.90
6964;DHT22;3522;50.856;7.278;2023-05-23T09:24:01;14.70;99.90
6964;DHT22;3522;50.856;7.278;2023-05-23T09:26:28;14.80;99.90
6964;DHT22;3522;50.856;7.278;2023-05-23T09:28:57;14.80;99.90
6964;DHT22;3522;50.856;7.278;2023-05-23T09:31:25;14.80;99.90
6964;DHT22;3522;50.856;7.278;2023-05-23T09:33:52;14.90;99.90
6964;DHT22;3522;50.856;7.278;2023-05-23T09:36:18;14.80;99.90
6964;DHT22;3522;50.856;7.278;2023-05-23T09:38:46;14.80;99.90
6964;DHT22;3522;50.856;7.278;2023-05-23T09:41:13;14.90;99.90
6964;DHT22;3522;50.856;7.278;2023-05-23T09:43:39;15.00;99.90
6964;DHT22;3522;50.856;7.278;2023-05-23T09:46:08;15.10;99.90
6964;DHT22;3522;50.856;7.278;2023-05-23T09:48:35;15.10;99.90
6964;DHT22;3522;50.856;7.278;2023-05-23T09:51:05;15.20;99.90
6964;DHT22;3522;50.856;7.278;2023-05-23T09:53:31;15.30;99.90
6964;DHT22;3522;50.856;7.278;2023-05-23T09:55:58;15.40;99.90
6964;DHT22;3522;50.856;7.278;2023-05-23T09:58:25;15.40;99.90
6964;DHT22;3522;50.856;7.278;2023-05-23T10:00:54;15.50;99.90
6964;DHT22;3522;50.856;7.278;2023-05-23T10:03:23;15.60;99.90
6964;DHT22;3522;50.856;7.278;2023-05-23T10:05:50;15.60;99.90
6964;DHT22;3522;50.856;7.278;2023-05-23T10:08:18;15.60;99.90
6964;DHT22;3522;50.856;7.278;2023-05-23T10:13:43;15.50;99.90
6964;DHT22;3522;50.856;7.278;2023-05-23T10:16:12;15.30;99.90
6964;DHT22;3522;50.856;7.278;2023-05-23T10:18:42;15.10;99.90
6964;DHT22;3522;50.856;7.278;2023-05-23T10:21:10;14.90;99.90
6964;DHT22;3522;50.856;7.278;2023-05-23T10:23:37;14.80;99.90
6964;DHT22;3522;50.856;7.278;2023-05-23T10:26:05;14.60;99.90
6964;DHT22;3522;50.856;7.278;2023-05-23T10:28:32;14.60;99.90
6964;DHT22;3522;50.856;7.278;2023-05-23T10:30:59;14.50;99.90
6964;DHT22;3522;50.856;7.278;2023-05-23T10:33:25;14.40;99.90
6964;DHT22;3522;50.856;7.278;2023-05-23T10:35:55;14.40;99.90
6964;DHT22;3522;50.856;7.278;2023-05-23T10:38:25;14.40;99.90
6964;DHT22;3522;50.856;7.278;2023-05-23T10:40:55;14.40;99.90
6964;DHT22;3522;50.856;7.278;2023-05-23T10:43:24;14.40;99.90
6964;DHT22;3522;50.856;7.278;2023-05-23T10:45:52;14.30;99.90
6964;DHT22;3522;50.856;7.278;2023-05-23T10:48:19;14.30;99.90
6964;DHT22;3522;50.856;7.278;2023-05-23T10:51:01;14.30;99.90
6964;DHT22;3522;50.856;7.278;2023-05-23T10:53:29;14.30;99.90
6964;DHT22;3522;50.856;7.278;2023-05-23T10:55:56;14.20;99.90
6964;DHT22;3522;50.856;7.278;2023-05-23T10:58:22;14.20;99.90
6964;DHT22;3522;50.856;7.278;2023-05-23T11:00:50;14.00;99.90
6964;DHT22;3522;50.856;7.278;2023-05-23T11:03:17;13.90;99.90
6964;DHT22;3522;50.856;7.278;2023-05-23T11:05:46;13.80;99.90
6964;DHT22;3522;50.856;7.278;2023-05-23T11:08:14;13.90;99.90
6964;DHT22;3522;50.856;7.278;2023-05-23T11:10:51;14.10;99.90
6964;DHT22;3522;50.856;7.278;2023-05-23T11:13:18;14.30;99.90
6964;DHT22;3522;50.856;7.278;2023-05-23T11:15:45;14.60;99.90
6964;DHT22;3522;50.856;7.278;2023-05-23T11:18:18;15.00;99.90
6964;DHT22;3522;50.856;7.278;2023-05-23T11:20:45;15.70;99.90
6964;DHT22;3522;50.856;7.278;2023-05-23T11:23:11;16.20;99.90
6964;DHT22;3522;50.856;7.278;2023-05-23T11:25:40;16.80;99.90
6964;DHT22;3522;50.856;7.278;2023-05-23T11:28:07;17.30;99.90
6964;DHT22;3522;50.856;7.278;2023-05-23T11:30:34;17.40;99.90
6964;DHT22;3522;50.856;7.278;2023-05-23T11:33:04;17.30;99.90
6964;DHT22;3522;50.856;7.278;2023-05-23T11:35:31;17.10;99.90
6964;DHT22;3522;50.856;7.278;2023-05-23T11:37:59;17.10;99.90
6964;DHT22;3522;50.856;7.278;2023-05-23T11:40:26;17.40;99.90
6964;DHT22;3522;50.856;7.278;2023-05-23T11:42:54;17.60;99.90
6964;DHT22;3522;50.856;7.278;2023-05-23T11:45:21;17.60;99.90
6964;DHT22;3522;50.856;7.278;2023-05-23T11:47:47;17.50;99.90
6964;DHT22;3522;50.856;7.278;2023-05-23T11:50:14;17.50;99.90
6964;DHT22;3522;50.856;7.278;2023-05-23T11:52:41;17.50;99.90
6964;DHT22;3522;50.856;7.278;2023-05-23T11:55:08;17.50;99.90
6964;DHT22;3522;50.856;7.278;2023-05-23T11:57:36;17.30;99.90
6964;DHT22;3522;50.856;7.278;2023-05-23T12:00:06;17.00;99.90
6964;DHT22;3522;50.856;7.278;2023-05-23T12:02:37;16.60;99.90
6964;DHT22;3522;50.856;7.278;2023-05-23T12:05:05;16.20;99.90
6964;DHT22;3522;50.856;7.278;2023-05-23T12:07:32;16.20;99.90
6964;DHT22;3522;50.856;7.278;2023-05-23T12:10:01;16.50;99.90
6964;DHT22;3522;50.856;7.278;2023-05-23T12:12:27;16.70;99.90
6964;DHT22;3522;50.856;7.278;2023-05-23T12:14:54;16.80;99.90
6964;DHT22;3522;50.856;7.278;2023-05-23T12:17:22;16.70;99.90
6964;DHT22;3522;50.856;7.278;2023-05-23T12:19:49;16.60;99.90
6964;DHT22;3522;50.856;7.278;2023-05-23T12:22:20;16.60;99.90
6964;DHT22;3522;50.856;7.278;2023-05-23T12:24:47;16.40;99.90
6964;DHT22;3522;50.856;7.278;2023-05-23T12:27:14;16.10;99.90
6964;DHT22;3522;50.856;7.278;2023-05-23T12:29:41;15.90;99.90
6964;DHT22;3522;50.856;7.278;2023-05-23T12:32:08;15.80;99.90
6964;DHT22;3522;50.856;7.278;2023-05-23T12:34:40;15.70;99.90
6964;DHT22;3522;50.856;7.278;2023-05-23T12:37:07;15.70;99.90
6964;DHT22;3522;50.856;7.278;2023-05-23T12:39:35;15.80;99.90
6964;DHT22;3522;50.856;7.278;2023-05-23T12:42:07;15.80;99.90
6964;DHT22;3522;50.856;7.278;2023-05-23T12:44:34;15.80;99.90
6964;DHT22;3522;50.856;7.278;2023-05-23T12:47:01;15.90;99.90
6964;DHT22;3522;50.856;7.278;2023-05-23T12:49:28;15.90;99.90
6964;DHT22;3522;50.856;7.278;2023-05-23T12:51:56;16.00;99.90
6964;DHT22;3522;50.856;7.278;2023-05-23T12:54:22;16.00;99.90
6964;DHT22;3522;50.856;7.278;2023-05-23T12:56:49;16.00;99.90
6964;DHT22;3522;50.856;7.278;2023-05-23T12:59:15;16.10;99.90
6964;DHT22;3522;50.856;7.278;2023-05-23T13:01:42;16.20;99.90
6964;DHT22;3522;50.856;7.278;2023-05-23T13:04:09;16.30;99.90
6964;DHT22;3522;50.856;7.278;2023-05-23T13:06:35;16.40;99.90
6964;DHT22;3522;50.856;7.278;2023-05-23T13:09:03;16.50;99.90
6964;DHT22;3522;50.856;7.278;2023-05-23T13:11:30;16.30;99.90
6964;DHT22;3522;50.856;7.278;2023-05-23T13:13:56;16.10;99.90
6964;DHT22;3522;50.856;7.278;2023-05-23T13:16:23;15.90;99.90
6964;DHT22;3522;50.856;7.278;2023-05-23T13:18:49;15.70;99.90
6964;DHT22;3522;50.856;7.278;2023-05-23T13:21:16;15.60;99.90
6964;DHT22;3522;50.856;7.278;2023-05-23T13:23:43;15.50;99.90
6964;DHT22;3522;50.856;7.278;2023-05-23T13:26:11;15.40;99.90
6964;DHT22;3522;50.856;7.278;2023-05-23T13:28:38;15.40;99.90
6964;DHT22;3522;50.856;7.278;2023-05-23T13:31:05;15.40;99.90
6964;DHT22;3522;50.856;7.278;2023-05-23T13:33:31;15.40;99.90
6964;DHT22;3522;50.856;7.278;2023-05-23T13:35:58;15.50;99.90
6964;DHT22;3522;50.856;7.278;2023-05-23T13:38:25;15.70;99.90
6964;DHT22;3522;50.856;7.278;2023-05-23T13:40:52;16.00;99.90
6964;DHT22;3522;50.856;7.278;2023-05-23T13:43:20;16.20;99.90
6964;DHT22;3522;50.856;7.278;2023-05-23T13:45:47;16.30;99.90
6964;DHT22;3522;50.856;7.278;2023-05-23T13:48:13;16.30;99.90
6964;DHT22;3522;50.856;7.278;2023-05-23T13:50:40;16.30;99.90
6964;DHT22;3522;50.856;7.278;2023-05-23T13:53:07;16.30;99.90
6964;DHT22;3522;50.856;7.278;2023-05-23T13:55:39;16.40;99.90
6964;DHT22;3522;50.856;7.278;2023-05-23T13:58:06;16.50;99.90
6964;DHT22;3522;50.856;7.278;2023-05-23T14:00:33;16.60;99.90
6964;DHT22;3522;50.856;7.278;2023-05-23T14:03:01;16.90;99.90
6964;DHT22;3522;50.856;7.278;2023-05-23T14:05:28;17.10;99.90
6964;DHT22;3522;50.856;7.278;2023-05-23T14:07:54;17.40;99.90
6964;DHT22;3522;50.856;7.278;2023-05-23T14:10:21;17.70;99.90
6964;DHT22;3522;50.856;7.278;2023-05-23T14:12:47;17.90;99.90
6964;DHT22;3522;50.856;7.278;2023-05-23T14:15:15;17.80;99.90
6964;DHT22;3522;50.856;7.278;2023-05-23T14:17:43;17.50;99.90
6964;DHT22;3522;50.856;7.278;2023-05-23T14:20:10;17.00;99.90
6964;DHT22;3522;50.856;7.278;2023-05-23T14:22:36;16.80;99.90
6964;DHT22;3522;50.856;7.278;2023-05-23T14:25:03;16.60;99.90
6964;DHT22;3522;50.856;7.278;2023-05-23T14:27:30;16.50;99.90
6964;DHT22;3522;50.856;7.278;2023-05-23T14:29:57;16.60;99.90
6964;DHT22;3522;50.856;7.278;2023-05-23T14:32:24;16.70;99.90
6964;DHT22;3522;50.856;7.278;2023-05-23T14:34:52;16.60;99.90
6964;DHT22;3522;50.856;7.278;2023-05-23T14:37:19;16.60;99.90
6964;DHT22;3522;50.856;7.278;2023-05-23T14:39:46;16.70;99.90
6964;DHT22;3522;50.856;7.278;2023-05-23T14:42:12;16.80;99.90
6964;DHT22;3522;50.856;7.278;2023-05-23T14:44:39;16.90;99.90
6964;DHT22;3522;50.856;7.278;2023-05-23T14:47:05;17.00;99.90
6964;DHT22;3522;50.856;7.278;2023-05-23T14:49:32;17.00;99.90
6964;DHT22;3522;50.856;7.278;2023-05-23T14:52:00;17.10;99.90
6964;DHT22;3522;50.856;7.278;2023-05-23T14:54:26;17.40;99.90
6964;DHT22;3522;50.856;7.278;2023-05-23T14:56:53;17.30;99.90
6964;DHT22;3522;50.856;7.278;2023-05-23T14:59:21;17.30;99.90
6964;DHT22;3522;50.856;7.278;2023-05-23T15:01:47;17.10;99.90
6964;DHT22;3522;50.856;7.278;2023-05-23T15:04:14;16.90;99.90
6964;DHT22;3522;50.856;7.278;2023-05-23T15:06:40;16.90;99.90
6964;DHT22;3522;50.856;7.278;2023-05-23T15:09:08;16.70;99.90
6964;DHT22;3522;50.856;7.278;2023-05-23T15:11:36;16.60;99.90
6964;DHT22;3522;50.856;7.278;2023-05-23T15:14:02;16.40;99.90
6964;DHT22;3522;50.856;7.278;2023-05-23T15:16:29;16.30;99.90
6964;DHT22;3522;50.856;7.278;2023-05-23T15:18:57;16.20;99.90
6964;DHT22;3522;50.856;7.278;2023-05-23T15:21:23;16.20;99.90
6964;DHT22;3522;50.856;7.278;2023-05-23T15:23:50;16.30;99.90
6964;DHT22;3522;50.856;7.278;2023-05-23T15:26:18;16.40;99.90
6964;DHT22;3522;50.856;7.278;2023-05-23T15:28:45;16.30;99.90
6964;DHT22;3522;50.856;7.278;2023-05-23T15:31:11;16.30;99.90
6964;DHT22;3522;50.856;7.278;2023-05-23T15:33:38;16.20;99.90
6964;DHT22;3522;50.856;7.278;2023-05-23T15:36:05;16.00;99.90
6964;DHT22;3522;50.856;7.278;2023-05-23T15:38:32;16.00;99.90
6964;DHT22;3522;50.856;7.278;2023-05-23T15:40:58;16.00;99.90
6964;DHT22;3522;50.856;7.278;2023-05-23T15:43:27;15.90;99.90
6964;DHT22;3522;50.856;7.278;2023-05-23T15:45:54;15.90;99.90
6964;DHT22;3522;50.856;7.278;2023-05-23T15:48:20;16.00;99.90
6964;DHT22;3522;50.856;7.278;2023-05-23T15:50:47;16.20;99.90
6964;DHT22;3522;50.856;7.278;2023-05-23T15:53:14;16.30;99.90
6964;DHT22;3522;50.856;7.278;2023-05-23T15:55:40;16.40;99.90
6964;DHT22;3522;50.856;7.278;2023-05-23T15:58:07;16.20;99.90
6964;DHT22;3522;50.856;7.278;2023-05-23T16:00:35;16.20;99.90
6964;DHT22;3522;50.856;7.278;2023-05-23T16:03:01;16.10;99.90
6964;DHT22;3522;50.856;7.278;2023-05-23T16:05:28;16.00;99.90